0446 UTC 22 October 2014 found at http://aviationweather.gov/adds/metars/
 
METAR text: KMNH 220431Z AUTO 28009KT 10SM OVC095 11/03 A3004 RMK AO2
Conditions at: KMNH (MONUMENT/ELBERT , CO, US) observed 0431 UTC 22 October 2014
Temperature: 11.0°C (52°F)
Dewpoint: 3.0°C (37°F) [RH = 58%]
Pressure (altimeter): 30.04 inches Hg (1017.4 mb)
Winds: from the W (280 degrees) at 10 MPH (9 knots; 4.7 m/s)
Visibility: 10 or more miles (16+ km)
Ceiling: 9500 feet AGL
Clouds: overcast cloud deck at 9500 feet AGL
Weather: automated observation with no human augmentation;
there may or may not be significant weather present at this time

METAR text: KMNH 220412Z AUTO 21005KT 10SM OVC095 10/04 A3003 RMK AO2
Conditions at: KMNH (MONUMENT/ELBERT , CO, US) observed 0412 UTC 22 October 2014
Temperature: 10.0°C (50°F)
Dewpoint: 4.0°C (39°F) [RH = 66%]
Pressure (altimeter): 30.03 inches Hg (1017.0 mb)
Winds: from the SSW (210 degrees) at 6 MPH (5 knots; 2.6 m/s)
Visibility: 10 or more miles (16+ km)
Ceiling: 9500 feet AGL
Clouds: overcast cloud deck at 9500 feet AGL
Weather: automated observation with no human augmentation;
there may or may not be significant weather present at this time

METAR text: KMNH 220352Z AUTO 22007KT 10SM SCT085 BKN100 11/04 A3003 RMK AO2
Conditions at: KMNH (MONUMENT/ELBERT , CO, US) observed 0352 UTC 22 October 2014
Temperature: 11.0°C (52°F)
Dewpoint: 4.0°C (39°F) [RH = 62%]
Pressure (altimeter): 30.03 inches Hg (1017.0 mb)
Winds: from the SW (220 degrees) at 8 MPH (7 knots; 3.6 m/s)
Visibility: 10 or more miles (16+ km)
Ceiling: 10000 feet AGL
Clouds: scattered clouds at 8500 feet AGL
broken clouds at 10000 feet AGL
Weather: automated observation with no human augmentation;
there may or may not be significant weather present at this time

METAR text: KMNH 220332Z AUTO 21005KT 10SM OVC100 11/04 A3003 RMK AO2
Conditions at: KMNH (MONUMENT/ELBERT , CO, US) observed 0332 UTC 22 October 2014
Temperature: 11.0°C (52°F)
Dewpoint: 4.0°C (39°F) [RH = 62%]
Pressure (altimeter): 30.03 inches Hg (1017.0 mb)
Winds: from the SSW (210 degrees) at 6 MPH (5 knots; 2.6 m/s)
Visibility: 10 or more miles (16+ km)
Ceiling: 10000 feet AGL
Clouds: overcast cloud deck at 10000 feet AGL
Weather: automated observation with no human augmentation;
there may or may not be significant weather present at this time

METAR text: KMNH 220312Z AUTO 21005KT 10SM BKN100 11/03 A3003 RMK AO2 LTG DSNT W
Conditions at: KMNH (MONUMENT/ELBERT , CO, US) observed 0312 UTC 22 October 2014
Temperature: 11.0°C (52°F)
Dewpoint: 3.0°C (37°F) [RH = 58%]
Pressure (altimeter): 30.03 inches Hg (1017.0 mb)
Winds: from the SSW (210 degrees) at 6 MPH (5 knots; 2.6 m/s)
Visibility: 10 or more miles (16+ km)
Ceiling: 10000 feet AGL
Clouds: broken clouds at 10000 feet AGL
Weather: automated observation with no human augmentation;
there may or may not be significant weather present at this time

METAR text: KMNH 220252Z AUTO 19009KT 10SM CLR 11/03 A3002 RMK AO2
Conditions at: KMNH (MONUMENT/ELBERT , CO, US) observed 0252 UTC 22 October 2014
Temperature: 11.0°C (52°F)
Dewpoint: 3.0°C (37°F) [RH = 58%]
Pressure (altimeter): 30.02 inches Hg (1016.7 mb)
Winds: from the S (190 degrees) at 10 MPH (9 knots; 4.7 m/s)
Visibility: 10 or more miles (16+ km)
Ceiling: at least 12,000 feet AGL
Clouds: sky clear below 12,000 feet AGL
Weather: automated observation with no human augmentation;
there may or may not be significant weather present at this time

METAR text: KMNH 220232Z AUTO 18009KT 10SM CLR 11/02 A3002 RMK AO2
Conditions at: KMNH (MONUMENT/ELBERT , CO, US) observed 0232 UTC 22 October 2014
Temperature: 11.0°C (52°F)
Dewpoint: 2.0°C (36°F) [RH = 54%]
Pressure (altimeter): 30.02 inches Hg (1016.7 mb)
Winds: from the S (180 degrees) at 10 MPH (9 knots; 4.7 m/s)
Visibility: 10 or more miles (16+ km)
Ceiling: at least 12,000 feet AGL
Clouds: sky clear below 12,000 feet AGL
Weather: automated observation with no human augmentation;
there may or may not be significant weather present at this time

METAR text: KMNH 220212Z AUTO 17010KT 10SM SCT100 11/01 A3002 RMK AO2
Conditions at: KMNH (MONUMENT/ELBERT , CO, US) observed 0212 UTC 22 October 2014
Temperature: 11.0°C (52°F)
Dewpoint: 1.0°C (34°F) [RH = 50%]
Pressure (altimeter): 30.02 inches Hg (1016.7 mb)
Winds: from the S (170 degrees) at 12 MPH (10 knots; 5.2 m/s)
Visibility: 10 or more miles (16+ km)
Ceiling: at least 12,000 feet AGL
Clouds: scattered clouds at 10000 feet AGL
Weather: automated observation with no human augmentation;
there may or may not be significant weather present at this time

METAR text: KMNH 220152Z AUTO 18008KT 10SM OVC100 09/01 A3003 RMK AO2 LTG DSNT NW
Conditions at: KMNH (MONUMENT/ELBERT , CO, US) observed 0152 UTC 22 October 2014
Temperature: 9.0°C (48°F)
Dewpoint: 1.0°C (34°F) [RH = 57%]
Pressure (altimeter): 30.03 inches Hg (1017.0 mb)
Winds: from the S (180 degrees) at 9 MPH (8 knots; 4.2 m/s)
Visibility: 10 or more miles (16+ km)
Ceiling: 10000 feet AGL
Clouds: overcast cloud deck at 10000 feet AGL
Weather: automated observation with no human augmentation;
there may or may not be significant weather present at this time

METAR text: KMNH 220132Z AUTO 20006KT 10SM BKN100 10/01 A3002 RMK AO2
Conditions at: KMNH (MONUMENT/ELBERT , CO, US) observed 0132 UTC 22 October 2014
Temperature: 10.0°C (50°F)
Dewpoint: 1.0°C (34°F) [RH = 53%]
Pressure (altimeter): 30.02 inches Hg (1016.7 mb)
Winds: from the SSW (200 degrees) at 7 MPH (6 knots; 3.1 m/s)
Visibility: 10 or more miles (16+ km)
Ceiling: 10000 feet AGL
Clouds: broken clouds at 10000 feet AGL
Weather: automated observation with no human augmentation;
there may or may not be significant weather present at this time

METAR text: KMNH 220112Z AUTO 20008KT 10SM CLR 10/01 A3002 RMK AO2
Conditions at: KMNH (MONUMENT/ELBERT , CO, US) observed 0112 UTC 22 October 2014
Temperature: 10.0°C (50°F)
Dewpoint: 1.0°C (34°F) [RH = 53%]
Pressure (altimeter): 30.02 inches Hg (1016.7 mb)
Winds: from the SSW (200 degrees) at 9 MPH (8 knots; 4.2 m/s)
Visibility: 10 or more miles (16+ km)
Ceiling: at least 12,000 feet AGL
Clouds: sky clear below 12,000 feet AGL
Weather: automated observation with no human augmentation;
there may or may not be significant weather present at this time

METAR text: KMNH 220052Z AUTO 18009KT 10SM CLR 11/00 A3002 RMK AO2
Conditions at: KMNH (MONUMENT/ELBERT , CO, US) observed 0052 UTC 22 October 2014
Temperature: 11.0°C (52°F)
Dewpoint: 0.0°C (32°F) [RH = 47%]
Pressure (altimeter): 30.02 inches Hg (1016.7 mb)
Winds: from the S (180 degrees) at 10 MPH (9 knots; 4.7 m/s)
Visibility: 10 or more miles (16+ km)
Ceiling: at least 12,000 feet AGL
Clouds: sky clear below 12,000 feet AGL
Weather: automated observation with no human augmentation;
there may or may not be significant weather present at this time

METAR text: KMNH 220032Z AUTO 18009KT 10SM CLR 11/00 A3001 RMK AO2
Conditions at: KMNH (MONUMENT/ELBERT , CO, US) observed 0032 UTC 22 October 2014
Temperature: 11.0°C (52°F)
Dewpoint: 0.0°C (32°F) [RH = 47%]
Pressure (altimeter): 30.01 inches Hg (1016.3 mb)
Winds: from the S (180 degrees) at 10 MPH (9 knots; 4.7 m/s)
Visibility: 10 or more miles (16+ km)
Ceiling: at least 12,000 feet AGL
Clouds: sky clear below 12,000 feet AGL
Weather: automated observation with no human augmentation;
there may or may not be significant weather present at this time

METAR text: KMNH 220012Z AUTO 18010KT 10SM CLR 12/00 A3001 RMK AO2 LTG DSNT NW
Conditions at: KMNH (MONUMENT/ELBERT , CO, US) observed 0012 UTC 22 October 2014
Temperature: 12.0°C (54°F)
Dewpoint: 0.0°C (32°F) [RH = 44%]
Pressure (altimeter): 30.01 inches Hg (1016.3 mb)
Winds: from the S (180 degrees) at 12 MPH (10 knots; 5.2 m/s)
Visibility: 10 or more miles (16+ km)
Ceiling: at least 12,000 feet AGL
Clouds: sky clear below 12,000 feet AGL
Weather: automated observation with no human augmentation;
there may or may not be significant weather present at this time

METAR text: KMNH 212352Z AUTO 18012KT 10SM CLR 14/00 A3001 RMK AO2 LTG DSNT W
Conditions at: KMNH (MONUMENT/ELBERT , CO, US) observed 2352 UTC 21 October 2014
Temperature: 14.0°C (57°F)
Dewpoint: 0.0°C (32°F) [RH = 38%]
Pressure (altimeter): 30.01 inches Hg (1016.3 mb)
Winds: from the S (180 degrees) at 14 MPH (12 knots; 6.2 m/s)
Visibility: 10 or more miles (16+ km)
Ceiling: at least 12,000 feet AGL
Clouds: sky clear below 12,000 feet AGL
Weather: automated observation with no human augmentation;
there may or may not be significant weather present at this time

METAR text: KMNH 212332Z AUTO 17013KT 10SM CLR 16/00 A3001 RMK AO2
Conditions at: KMNH (MONUMENT/ELBERT , CO, US) observed 2332 UTC 21 October 2014
Temperature: 16.0°C (61°F)
Dewpoint: 0.0°C (32°F) [RH = 34%]
Pressure (altimeter): 30.01 inches Hg (1016.3 mb)
Winds: from the S (170 degrees) at 15 MPH (13 knots; 6.8 m/s)
Visibility: 10 or more miles (16+ km)
Ceiling: at least 12,000 feet AGL
Clouds: sky clear below 12,000 feet AGL
Weather: automated observation with no human augmentation;
there may or may not be significant weather present at this time

METAR text: KMNH 212311Z AUTO 17012KT 10SM CLR 15/00 A3001 RMK AO2
Conditions at: KMNH (MONUMENT/ELBERT , CO, US) observed 2311 UTC 21 October 2014
Temperature: 15.0°C (59°F)
Dewpoint: 0.0°C (32°F) [RH = 36%]
Pressure (altimeter): 30.01 inches Hg (1016.3 mb)
Winds: from the S (170 degrees) at 14 MPH (12 knots; 6.2 m/s)
Visibility: 10 or more miles (16+ km)
Ceiling: at least 12,000 feet AGL
Clouds: sky clear below 12,000 feet AGL
Weather: automated observation with no human augmentation;
there may or may not be significant weather present at this time

METAR text: KMNH 212252Z AUTO 17012KT 10SM SCT110 17/00 A3001 RMK AO2
Conditions at: KMNH (MONUMENT/ELBERT , CO, US) observed 2252 UTC 21 October 2014
Temperature: 17.0°C (63°F)
Dewpoint: 0.0°C (32°F) [RH = 32%]
Pressure (altimeter): 30.01 inches Hg (1016.3 mb)
Winds: from the S (170 degrees) at 14 MPH (12 knots; 6.2 m/s)
Visibility: 10 or more miles (16+ km)
Ceiling: at least 12,000 feet AGL
Clouds: scattered clouds at 11000 feet AGL
Weather: automated observation with no human augmentation;
there may or may not be significant weather present at this time

METAR text: KMNH 212232Z AUTO 18014G20KT 10SM BKN120 18/00 A3002 RMK AO2
Conditions at: KMNH (MONUMENT/ELBERT , CO, US) observed 2232 UTC 21 October 2014
Temperature: 18.0°C (64°F)
Dewpoint: 0.0°C (32°F) [RH = 30%]
Pressure (altimeter): 30.02 inches Hg (1016.7 mb)
Winds: from the S (180 degrees) at 16 MPH (14 knots; 7.3 m/sgusting to 23 MPH (20 knots; 10.4 m/s)
Visibility: 10 or more miles (16+ km)
Ceiling: 12000 feet AGL
Clouds: broken clouds at 12000 feet AGL
Weather: automated observation with no human augmentation;
there may or may not be significant weather present at this time

METAR text: KMNH 212211Z AUTO 19016G22KT 10SM SCT120 18/01 A3003 RMK AO2 LTG DSNT NW
Conditions at: KMNH (MONUMENT/ELBERT , CO, US) observed 2211 UTC 21 October 2014
Temperature: 18.0°C (64°F)
Dewpoint: 1.0°C (34°F) [RH = 32%]
Pressure (altimeter): 30.03 inches Hg (1017.0 mb)
Winds: from the S (190 degrees) at 18 MPH (16 knots; 8.3 m/sgusting to 25 MPH (22 knots; 11.4 m/s)
Visibility: 10 or more miles (16+ km)
Ceiling: at least 12,000 feet AGL
Clouds: scattered clouds at 12000 feet AGL
Weather: automated observation with no human augmentation;
there may or may not be significant weather present at this time

METAR text: KMNH 212152Z AUTO 19015G19KT 10SM SCT120 17/01 A3003 RMK AO2
Conditions at: KMNH (MONUMENT/ELBERT , CO, US) observed 2152 UTC 21 October 2014
Temperature: 17.0°C (63°F)
Dewpoint: 1.0°C (34°F) [RH = 34%]
Pressure (altimeter): 30.03 inches Hg (1017.0 mb)
Winds: from the S (190 degrees) at 17 MPH (15 knots; 7.8 m/sgusting to 22 MPH (19 knots; 9.9 m/s)
Visibility: 10 or more miles (16+ km)
Ceiling: at least 12,000 feet AGL
Clouds: scattered clouds at 12000 feet AGL
Weather: automated observation with no human augmentation;
there may or may not be significant weather present at this time

METAR text: KMNH 212132Z AUTO 18015G21KT 10SM CLR 17/01 A3003 RMK AO2
Conditions at: KMNH (MONUMENT/ELBERT , CO, US) observed 2132 UTC 21 October 2014
Temperature: 17.0°C (63°F)
Dewpoint: 1.0°C (34°F) [RH = 34%]
Pressure (altimeter): 30.03 inches Hg (1017.0 mb)
Winds: from the S (180 degrees) at 17 MPH (15 knots; 7.8 m/sgusting to 24 MPH (21 knots; 10.9 m/s)
Visibility: 10 or more miles (16+ km)
Ceiling: at least 12,000 feet AGL
Clouds: sky clear below 12,000 feet AGL
Weather: automated observation with no human augmentation;
there may or may not be significant weather present at this time

METAR text: KMNH 212112Z AUTO 18011KT 10SM SCT110 18/01 A3003 RMK AO2
Conditions at: KMNH (MONUMENT/ELBERT , CO, US) observed 2112 UTC 21 October 2014
Temperature: 18.0°C (64°F)
Dewpoint: 1.0°C (34°F) [RH = 32%]
Pressure (altimeter): 30.03 inches Hg (1017.0 mb)
Winds: from the S (180 degrees) at 13 MPH (11 knots; 5.7 m/s)
Visibility: 10 or more miles (16+ km)
Ceiling: at least 12,000 feet AGL
Clouds: scattered clouds at 11000 feet AGL
Weather: automated observation with no human augmentation;
there may or may not be significant weather present at this time

METAR text: KMNH 212052Z AUTO 18014G19KT 10SM BKN110 19/01 A3003 RMK AO2
Conditions at: KMNH (MONUMENT/ELBERT , CO, US) observed 2052 UTC 21 October 2014
Temperature: 19.0°C (66°F)
Dewpoint: 1.0°C (34°F) [RH = 30%]
Pressure (altimeter): 30.03 inches Hg (1017.0 mb)
Winds: from the S (180 degrees) at 16 MPH (14 knots; 7.3 m/sgusting to 22 MPH (19 knots; 9.9 m/s)
Visibility: 10 or more miles (16+ km)
Ceiling: 11000 feet AGL
Clouds: broken clouds at 11000 feet AGL
Weather: automated observation with no human augmentation;
there may or may not be significant weather present at this time

METAR text: KMNH 212032Z AUTO 19011G15KT 10SM CLR 18/00 A3004 RMK AO2
Conditions at: KMNH (MONUMENT/ELBERT , CO, US) observed 2032 UTC 21 October 2014
Temperature: 18.0°C (64°F)
Dewpoint: 0.0°C (32°F) [RH = 30%]
Pressure (altimeter): 30.04 inches Hg (1017.4 mb)
Winds: from the S (190 degrees) at 13 MPH (11 knots; 5.7 m/sgusting to 17 MPH (15 knots; 7.8 m/s)
Visibility: 10 or more miles (16+ km)
Ceiling: at least 12,000 feet AGL
Clouds: sky clear below 12,000 feet AGL
Weather: automated observation with no human augmentation;
there may or may not be significant weather present at this time

METAR text: KMNH 212012Z AUTO 18011G14KT 10SM CLR 20/01 A3004 RMK AO2
Conditions at: KMNH (MONUMENT/ELBERT , CO, US) observed 2012 UTC 21 October 2014
Temperature: 20.0°C (68°F)
Dewpoint: 1.0°C (34°F) [RH = 28%]
Pressure (altimeter): 30.04 inches Hg (1017.4 mb)
Winds: from the S (180 degrees) at 13 MPH (11 knots; 5.7 m/sgusting to 16 MPH (14 knots; 7.3 m/s)
Visibility: 10 or more miles (16+ km)
Ceiling: at least 12,000 feet AGL
Clouds: sky clear below 12,000 feet AGL
Weather: automated observation with no human augmentation;
there may or may not be significant weather present at this time

METAR text: KMNH 211952Z AUTO 20010KT 10SM CLR 20/00 A3005 RMK AO2
Conditions at: KMNH (MONUMENT/ELBERT , CO, US) observed 1952 UTC 21 October 2014
Temperature: 20.0°C (68°F)
Dewpoint: 0.0°C (32°F) [RH = 26%]
Pressure (altimeter): 30.05 inches Hg (1017.7 mb)
Winds: from the SSW (200 degrees) at 12 MPH (10 knots; 5.2 m/s)
Visibility: 10 or more miles (16+ km)
Ceiling: at least 12,000 feet AGL
Clouds: sky clear below 12,000 feet AGL
Weather: automated observation with no human augmentation;
there may or may not be significant weather present at this time

METAR text: KMNH 211932Z AUTO 21009KT 10SM SCT075 20/00 A3005 RMK AO2
Conditions at: KMNH (MONUMENT/ELBERT , CO, US) observed 1932 UTC 21 October 2014
Temperature: 20.0°C (68°F)
Dewpoint: 0.0°C (32°F) [RH = 26%]
Pressure (altimeter): 30.05 inches Hg (1017.7 mb)
Winds: from the SSW (210 degrees) at 10 MPH (9 knots; 4.7 m/s)
Visibility: 10 or more miles (16+ km)
Ceiling: at least 12,000 feet AGL
Clouds: scattered clouds at 7500 feet AGL
Weather: automated observation with no human augmentation;
there may or may not be significant weather present at this time

METAR text: KMNH 211912Z AUTO 21009G14KT 10SM SCT085 21/00 A3006 RMK AO2
Conditions at: KMNH (MONUMENT/ELBERT , CO, US) observed 1912 UTC 21 October 2014
Temperature: 21.0°C (70°F)
Dewpoint: 0.0°C (32°F) [RH = 25%]
Pressure (altimeter): 30.06 inches Hg (1018.0 mb)
Winds: from the SSW (210 degrees) at 10 MPH (9 knots; 4.7 m/sgusting to 16 MPH (14 knots; 7.3 m/s)
Visibility: 10 or more miles (16+ km)
Ceiling: at least 12,000 feet AGL
Clouds: scattered clouds at 8500 feet AGL
Weather: automated observation with no human augmentation;
there may or may not be significant weather present at this time

METAR text: KMNH 211852Z AUTO 22007G19KT 10SM SCT075 20/00 A3007 RMK AO2
Conditions at: KMNH (MONUMENT/ELBERT , CO, US) observed 1852 UTC 21 October 2014
Temperature: 20.0°C (68°F)
Dewpoint: 0.0°C (32°F) [RH = 26%]
Pressure (altimeter): 30.07 inches Hg (1018.4 mb)
Winds: from the SW (220 degrees) at 8 MPH (7 knots; 3.6 m/sgusting to 22 MPH (19 knots; 9.9 m/s)
Visibility: 10 or more miles (16+ km)
Ceiling: at least 12,000 feet AGL
Clouds: scattered clouds at 7500 feet AGL
Weather: automated observation with no human augmentation;
there may or may not be significant weather present at this time

METAR text: KMNH 211832Z AUTO 23006KT 10SM SCT075 20/00 A3008 RMK AO2
Conditions at: KMNH (MONUMENT/ELBERT , CO, US) observed 1832 UTC 21 October 2014
Temperature: 20.0°C (68°F)
Dewpoint: 0.0°C (32°F) [RH = 26%]
Pressure (altimeter): 30.08 inches Hg (1018.7 mb)
Winds: from the SW (230 degrees) at 7 MPH (6 knots; 3.1 m/s)
Visibility: 10 or more miles (16+ km)
Ceiling: at least 12,000 feet AGL
Clouds: scattered clouds at 7500 feet AGL
Weather: automated observation with no human augmentation;
there may or may not be significant weather present at this time

METAR text: KMNH 211812Z AUTO 22007KT 180V240 10SM CLR 20/00 A3009 RMK AO2
Conditions at: KMNH (MONUMENT/ELBERT , CO, US) observed 1812 UTC 21 October 2014
Temperature: 20.0°C (68°F)
Dewpoint: 0.0°C (32°F) [RH = 26%]
Pressure (altimeter): 30.09 inches Hg (1019.0 mb)
Winds: from the SW (220 degrees) at 8 MPH (7 knots; 3.6 m/s)
Visibility: 10 or more miles (16+ km)
Ceiling: at least 12,000 feet AGL
Clouds: sky clear below 12,000 feet AGL
Weather: automated observation with no human augmentation;
there may or may not be significant weather present at this time

METAR text: KMNH 211751Z AUTO 24008KT 10SM CLR 20/00 A3010 RMK AO2
Conditions at: KMNH (MONUMENT/ELBERT , CO, US) observed 1751 UTC 21 October 2014
Temperature: 20.0°C (68°F)
Dewpoint: 0.0°C (32°F) [RH = 26%]
Pressure (altimeter): 30.10 inches Hg (1019.4 mb)
Winds: from the WSW (240 degrees) at 9 MPH (8 knots; 4.2 m/s)
Visibility: 10 or more miles (16+ km)
Ceiling: at least 12,000 feet AGL
Clouds: sky clear below 12,000 feet AGL
Weather: automated observation with no human augmentation;
there may or may not be significant weather present at this time

METAR text: KMNH 211732Z AUTO 25009KT 10SM CLR 20/00 A3010 RMK AO2
Conditions at: KMNH (MONUMENT/ELBERT , CO, US) observed 1732 UTC 21 October 2014
Temperature: 20.0°C (68°F)
Dewpoint: 0.0°C (32°F) [RH = 26%]
Pressure (altimeter): 30.10 inches Hg (1019.4 mb)
Winds: from the WSW (250 degrees) at 10 MPH (9 knots; 4.7 m/s)
Visibility: 10 or more miles (16+ km)
Ceiling: at least 12,000 feet AGL
Clouds: sky clear below 12,000 feet AGL
Weather: automated observation with no human augmentation;
there may or may not be significant weather present at this time

METAR text: KMNH 211712Z AUTO 25006KT 10SM CLR 19/00 A3011 RMK AO2
Conditions at: KMNH (MONUMENT/ELBERT , CO, US) observed 1712 UTC 21 October 2014
Temperature: 19.0°C (66°F)
Dewpoint: 0.0°C (32°F) [RH = 28%]
Pressure (altimeter): 30.11 inches Hg (1019.7 mb)
Winds: from the WSW (250 degrees) at 7 MPH (6 knots; 3.1 m/s)
Visibility: 10 or more miles (16+ km)
Ceiling: at least 12,000 feet AGL
Clouds: sky clear below 12,000 feet AGL
Weather: automated observation with no human augmentation;
there may or may not be significant weather present at this time

METAR text: KMNH 211652Z AUTO 18005KT 10SM CLR 18/00 A3012 RMK AO2
Conditions at: KMNH (MONUMENT/ELBERT , CO, US) observed 1652 UTC 21 October 2014
Temperature: 18.0°C (64°F)
Dewpoint: 0.0°C (32°F) [RH = 30%]
Pressure (altimeter): 30.12 inches Hg (1020.1 mb)
Winds: from the S (180 degrees) at 6 MPH (5 knots; 2.6 m/s)
Visibility: 10 or more miles (16+ km)
Ceiling: at least 12,000 feet AGL
Clouds: sky clear below 12,000 feet AGL
Weather: automated observation with no human augmentation;
there may or may not be significant weather present at this time

METAR text: KMNH 211632Z AUTO 15009KT 10SM CLR 18/00 A3012 RMK AO2
Conditions at: KMNH (MONUMENT/ELBERT , CO, US) observed 1632 UTC 21 October 2014
Temperature: 18.0°C (64°F)
Dewpoint: 0.0°C (32°F) [RH = 30%]
Pressure (altimeter): 30.12 inches Hg (1020.1 mb)
Winds: from the SSE (150 degrees) at 10 MPH (9 knots; 4.7 m/s)
Visibility: 10 or more miles (16+ km)
Ceiling: at least 12,000 feet AGL
Clouds: sky clear below 12,000 feet AGL
Weather: automated observation with no human augmentation;
there may or may not be significant weather present at this time

METAR text: KMNH 211611Z AUTO 18008KT 10SM CLR 18/00 A3013 RMK AO2
Conditions at: KMNH (MONUMENT/ELBERT , CO, US) observed 1611 UTC 21 October 2014
Temperature: 18.0°C (64°F)
Dewpoint: 0.0°C (32°F) [RH = 30%]
Pressure (altimeter): 30.13 inches Hg (1020.4 mb)
Winds: from the S (180 degrees) at 9 MPH (8 knots; 4.2 m/s)
Visibility: 10 or more miles (16+ km)
Ceiling: at least 12,000 feet AGL
Clouds: sky clear below 12,000 feet AGL
Weather: automated observation with no human augmentation;
there may or may not be significant weather present at this time

METAR text: KMNH 211551Z AUTO 21008KT 10SM CLR 17/00 A3013 RMK AO2
Conditions at: KMNH (MONUMENT/ELBERT , CO, US) observed 1551 UTC 21 October 2014
Temperature: 17.0°C (63°F)
Dewpoint: 0.0°C (32°F) [RH = 32%]
Pressure (altimeter): 30.13 inches Hg (1020.4 mb)
Winds: from the SSW (210 degrees) at 9 MPH (8 knots; 4.2 m/s)
Visibility: 10 or more miles (16+ km)
Ceiling: at least 12,000 feet AGL
Clouds: sky clear below 12,000 feet AGL
Weather: automated observation with no human augmentation;
there may or may not be significant weather present at this time

METAR text: KMNH 211531Z AUTO 22006KT 10SM CLR 16/01 A3013 RMK AO2
Conditions at: KMNH (MONUMENT/ELBERT , CO, US) observed 1531 UTC 21 October 2014
Temperature: 16.0°C (61°F)
Dewpoint: 1.0°C (34°F) [RH = 36%]
Pressure (altimeter): 30.13 inches Hg (1020.4 mb)
Winds: from the SW (220 degrees) at 7 MPH (6 knots; 3.1 m/s)
Visibility: 10 or more miles (16+ km)
Ceiling: at least 12,000 feet AGL
Clouds: sky clear below 12,000 feet AGL
Weather: automated observation with no human augmentation;
there may or may not be significant weather present at this time

METAR text: KMNH 211512Z AUTO 25005KT 10SM CLR 14/02 A3013 RMK AO2
Conditions at: KMNH (MONUMENT/ELBERT , CO, US) observed 1512 UTC 21 October 2014
Temperature: 14.0°C (57°F)
Dewpoint: 2.0°C (36°F) [RH = 44%]
Pressure (altimeter): 30.13 inches Hg (1020.4 mb)
Winds: from the WSW (250 degrees) at 6 MPH (5 knots; 2.6 m/s)
Visibility: 10 or more miles (16+ km)
Ceiling: at least 12,000 feet AGL
Clouds: sky clear below 12,000 feet AGL
Weather: automated observation with no human augmentation;
there may or may not be significant weather present at this time

METAR text: KMNH 211452Z AUTO 21006KT 10SM CLR 13/01 A3013 RMK AO2
Conditions at: KMNH (MONUMENT/ELBERT , CO, US) observed 1452 UTC 21 October 2014
Temperature: 13.0°C (55°F)
Dewpoint: 1.0°C (34°F) [RH = 44%]
Pressure (altimeter): 30.13 inches Hg (1020.4 mb)
Winds: from the SSW (210 degrees) at 7 MPH (6 knots; 3.1 m/s)
Visibility: 10 or more miles (16+ km)
Ceiling: at least 12,000 feet AGL
Clouds: sky clear below 12,000 feet AGL
Weather: automated observation with no human augmentation;
there may or may not be significant weather present at this time

METAR text: KMNH 211432Z AUTO 21004KT 10SM CLR 12/02 A3013 RMK AO2
Conditions at: KMNH (MONUMENT/ELBERT , CO, US) observed 1432 UTC 21 October 2014
Temperature: 12.0°C (54°F)
Dewpoint: 2.0°C (36°F) [RH = 50%]
Pressure (altimeter): 30.13 inches Hg (1020.4 mb)
Winds: from the SSW (210 degrees) at 5 MPH (4 knots; 2.1 m/s)
Visibility: 10 or more miles (16+ km)
Ceiling: at least 12,000 feet AGL
Clouds: sky clear below 12,000 feet AGL
Weather: automated observation with no human augmentation;
there may or may not be significant weather present at this time

METAR text: KMNH 211412Z AUTO 22007KT 10SM CLR 10/01 A3013 RMK AO2
Conditions at: KMNH (MONUMENT/ELBERT , CO, US) observed 1412 UTC 21 October 2014
Temperature: 10.0°C (50°F)
Dewpoint: 1.0°C (34°F) [RH = 53%]
Pressure (altimeter): 30.13 inches Hg (1020.4 mb)
Winds: from the SW (220 degrees) at 8 MPH (7 knots; 3.6 m/s)
Visibility: 10 or more miles (16+ km)
Ceiling: at least 12,000 feet AGL
Clouds: sky clear below 12,000 feet AGL
Weather: automated observation with no human augmentation;
there may or may not be significant weather present at this time

METAR text: KMNH 211352Z AUTO 21005KT 10SM CLR 08/01 A3013 RMK AO2
Conditions at: KMNH (MONUMENT/ELBERT , CO, US) observed 1352 UTC 21 October 2014
Temperature: 8.0°C (46°F)
Dewpoint: 1.0°C (34°F) [RH = 61%]
Pressure (altimeter): 30.13 inches Hg (1020.4 mb)
Winds: from the SSW (210 degrees) at 6 MPH (5 knots; 2.6 m/s)
Visibility: 10 or more miles (16+ km)
Ceiling: at least 12,000 feet AGL
Clouds: sky clear below 12,000 feet AGL
Weather: automated observation with no human augmentation;
there may or may not be significant weather present at this time

METAR text: KMNH 211332Z AUTO 21006KT 10SM CLR 07/01 A3013 RMK AO2
Conditions at: KMNH (MONUMENT/ELBERT , CO, US) observed 1332 UTC 21 October 2014
Temperature: 7.0°C (45°F)
Dewpoint: 1.0°C (34°F) [RH = 66%]
Pressure (altimeter): 30.13 inches Hg (1020.4 mb)
Winds: from the SSW (210 degrees) at 7 MPH (6 knots; 3.1 m/s)
Visibility: 10 or more miles (16+ km)
Ceiling: at least 12,000 feet AGL
Clouds: sky clear below 12,000 feet AGL
Weather: automated observation with no human augmentation;
there may or may not be significant weather present at this time

METAR text: KMNH 211312Z AUTO 21007KT 10SM CLR 08/01 A3012 RMK AO2
Conditions at: KMNH (MONUMENT/ELBERT , CO, US) observed 1312 UTC 21 October 2014
Temperature: 8.0°C (46°F)
Dewpoint: 1.0°C (34°F) [RH = 61%]
Pressure (altimeter): 30.12 inches Hg (1020.1 mb)
Winds: from the SSW (210 degrees) at 8 MPH (7 knots; 3.6 m/s)
Visibility: 10 or more miles (16+ km)
Ceiling: at least 12,000 feet AGL
Clouds: sky clear below 12,000 feet AGL
Weather: automated observation with no human augmentation;
there may or may not be significant weather present at this time

METAR text: KMNH 211252Z AUTO 22010KT 10SM CLR 08/01 A3012 RMK AO2
Conditions at: KMNH (MONUMENT/ELBERT , CO, US) observed 1252 UTC 21 October 2014
Temperature: 8.0°C (46°F)
Dewpoint: 1.0°C (34°F) [RH = 61%]
Pressure (altimeter): 30.12 inches Hg (1020.1 mb)
Winds: from the SW (220 degrees) at 12 MPH (10 knots; 5.2 m/s)
Visibility: 10 or more miles (16+ km)
Ceiling: at least 12,000 feet AGL
Clouds: sky clear below 12,000 feet AGL
Weather: automated observation with no human augmentation;
there may or may not be significant weather present at this time

METAR text: KMNH 211232Z AUTO 21006KT 10SM CLR 07/01 A3012 RMK AO2
Conditions at: KMNH (MONUMENT/ELBERT , CO, US) observed 1232 UTC 21 October 2014
Temperature: 7.0°C (45°F)
Dewpoint: 1.0°C (34°F) [RH = 66%]
Pressure (altimeter): 30.12 inches Hg (1020.1 mb)
Winds: from the SSW (210 degrees) at 7 MPH (6 knots; 3.1 m/s)
Visibility: 10 or more miles (16+ km)
Ceiling: at least 12,000 feet AGL
Clouds: sky clear below 12,000 feet AGL
Weather: automated observation with no human augmentation;
there may or may not be significant weather present at this time

METAR text: KMNH 211212Z AUTO 22005KT 10SM CLR 06/01 A3013 RMK AO2
Conditions at: KMNH (MONUMENT/ELBERT , CO, US) observed 1212 UTC 21 October 2014
Temperature: 6.0°C (43°F)
Dewpoint: 1.0°C (34°F) [RH = 70%]
Pressure (altimeter): 30.13 inches Hg (1020.4 mb)
Winds: from the SW (220 degrees) at 6 MPH (5 knots; 2.6 m/s)
Visibility: 10 or more miles (16+ km)
Ceiling: at least 12,000 feet AGL
Clouds: sky clear below 12,000 feet AGL
Weather: automated observation with no human augmentation;
there may or may not be significant weather present at this time

METAR text: KMNH 211152Z AUTO 22006KT 10SM CLR 07/01 A3013 RMK AO2
Conditions at: KMNH (MONUMENT/ELBERT , CO, US) observed 1152 UTC 21 October 2014
Temperature: 7.0°C (45°F)
Dewpoint: 1.0°C (34°F) [RH = 66%]
Pressure (altimeter): 30.13 inches Hg (1020.4 mb)
Winds: from the SW (220 degrees) at 7 MPH (6 knots; 3.1 m/s)
Visibility: 10 or more miles (16+ km)
Ceiling: at least 12,000 feet AGL
Clouds: sky clear below 12,000 feet AGL
Weather: automated observation with no human augmentation;
there may or may not be significant weather present at this time

METAR text: KMNH 211132Z AUTO 21006KT 10SM CLR 06/01 A3013 RMK AO2
Conditions at: KMNH (MONUMENT/ELBERT , CO, US) observed 1132 UTC 21 October 2014
Temperature: 6.0°C (43°F)
Dewpoint: 1.0°C (34°F) [RH = 70%]
Pressure (altimeter): 30.13 inches Hg (1020.4 mb)
Winds: from the SSW (210 degrees) at 7 MPH (6 knots; 3.1 m/s)
Visibility: 10 or more miles (16+ km)
Ceiling: at least 12,000 feet AGL
Clouds: sky clear below 12,000 feet AGL
Weather: automated observation with no human augmentation;
there may or may not be significant weather present at this time

METAR text: KMNH 211112Z AUTO 21005KT 10SM CLR 06/01 A3013 RMK AO2
Conditions at: KMNH (MONUMENT/ELBERT , CO, US) observed 1112 UTC 21 October 2014
Temperature: 6.0°C (43°F)
Dewpoint: 1.0°C (34°F) [RH = 70%]
Pressure (altimeter): 30.13 inches Hg (1020.4 mb)
Winds: from the SSW (210 degrees) at 6 MPH (5 knots; 2.6 m/s)
Visibility: 10 or more miles (16+ km)
Ceiling: at least 12,000 feet AGL
Clouds: sky clear below 12,000 feet AGL
Weather: automated observation with no human augmentation;
there may or may not be significant weather present at this time

METAR text: KMNH 211052Z AUTO 21007KT 10SM CLR 06/02 A3013 RMK AO2
Conditions at: KMNH (MONUMENT/ELBERT , CO, US) observed 1052 UTC 21 October 2014
Temperature: 6.0°C (43°F)
Dewpoint: 2.0°C (36°F) [RH = 75%]
Pressure (altimeter): 30.13 inches Hg (1020.4 mb)
Winds: from the SSW (210 degrees) at 8 MPH (7 knots; 3.6 m/s)
Visibility: 10 or more miles (16+ km)
Ceiling: at least 12,000 feet AGL
Clouds: sky clear below 12,000 feet AGL
Weather: automated observation with no human augmentation;
there may or may not be significant weather present at this time

METAR text: KMNH 211032Z AUTO 20008KT 10SM CLR 07/02 A3013 RMK AO2
Conditions at: KMNH (MONUMENT/ELBERT , CO, US) observed 1032 UTC 21 October 2014
Temperature: 7.0°C (45°F)
Dewpoint: 2.0°C (36°F) [RH = 70%]
Pressure (altimeter): 30.13 inches Hg (1020.4 mb)
Winds: from the SSW (200 degrees) at 9 MPH (8 knots; 4.2 m/s)
Visibility: 10 or more miles (16+ km)
Ceiling: at least 12,000 feet AGL
Clouds: sky clear below 12,000 feet AGL
Weather: automated observation with no human augmentation;
there may or may not be significant weather present at this time

METAR text: KMNH 211012Z AUTO 21007KT 10SM CLR 06/02 A3013 RMK AO2
Conditions at: KMNH (MONUMENT/ELBERT , CO, US) observed 1012 UTC 21 October 2014
Temperature: 6.0°C (43°F)
Dewpoint: 2.0°C (36°F) [RH = 75%]
Pressure (altimeter): 30.13 inches Hg (1020.4 mb)
Winds: from the SSW (210 degrees) at 8 MPH (7 knots; 3.6 m/s)
Visibility: 10 or more miles (16+ km)
Ceiling: at least 12,000 feet AGL
Clouds: sky clear below 12,000 feet AGL
Weather: automated observation with no human augmentation;
there may or may not be significant weather present at this time

METAR text: KMNH 210952Z AUTO 21007KT 10SM CLR 05/03 A3013 RMK AO2
Conditions at: KMNH (MONUMENT/ELBERT , CO, US) observed 0952 UTC 21 October 2014
Temperature: 5.0°C (41°F)
Dewpoint: 3.0°C (37°F) [RH = 87%]
Pressure (altimeter): 30.13 inches Hg (1020.4 mb)
Winds: from the SSW (210 degrees) at 8 MPH (7 knots; 3.6 m/s)
Visibility: 10 or more miles (16+ km)
Ceiling: at least 12,000 feet AGL
Clouds: sky clear below 12,000 feet AGL
Weather: automated observation with no human augmentation;
there may or may not be significant weather present at this time

METAR text: KMNH 210931Z AUTO 21006KT 10SM CLR 06/03 A3013 RMK AO2
Conditions at: KMNH (MONUMENT/ELBERT , CO, US) observed 0931 UTC 21 October 2014
Temperature: 6.0°C (43°F)
Dewpoint: 3.0°C (37°F) [RH = 81%]
Pressure (altimeter): 30.13 inches Hg (1020.4 mb)
Winds: from the SSW (210 degrees) at 7 MPH (6 knots; 3.1 m/s)
Visibility: 10 or more miles (16+ km)
Ceiling: at least 12,000 feet AGL
Clouds: sky clear below 12,000 feet AGL
Weather: automated observation with no human augmentation;
there may or may not be significant weather present at this time

METAR text: KMNH 210912Z AUTO 20008KT 10SM CLR 06/04 A3013 RMK AO2
Conditions at: KMNH (MONUMENT/ELBERT , CO, US) observed 0912 UTC 21 October 2014
Temperature: 6.0°C (43°F)
Dewpoint: 4.0°C (39°F) [RH = 87%]
Pressure (altimeter): 30.13 inches Hg (1020.4 mb)
Winds: from the SSW (200 degrees) at 9 MPH (8 knots; 4.2 m/s)
Visibility: 10 or more miles (16+ km)
Ceiling: at least 12,000 feet AGL
Clouds: sky clear below 12,000 feet AGL
Weather: automated observation with no human augmentation;
there may or may not be significant weather present at this time

METAR text: KMNH 210852Z AUTO 20009KT 10SM CLR 06/04 A3014 RMK AO2
Conditions at: KMNH (MONUMENT/ELBERT , CO, US) observed 0852 UTC 21 October 2014
Temperature: 6.0°C (43°F)
Dewpoint: 4.0°C (39°F) [RH = 87%]
Pressure (altimeter): 30.14 inches Hg (1020.7 mb)
Winds: from the SSW (200 degrees) at 10 MPH (9 knots; 4.7 m/s)
Visibility: 10 or more miles (16+ km)
Ceiling: at least 12,000 feet AGL
Clouds: sky clear below 12,000 feet AGL
Weather: automated observation with no human augmentation;
there may or may not be significant weather present at this time

METAR text: KMNH 210832Z AUTO 20007KT 10SM CLR 06/03 A3015 RMK AO2
Conditions at: KMNH (MONUMENT/ELBERT , CO, US) observed 0832 UTC 21 October 2014
Temperature: 6.0°C (43°F)
Dewpoint: 3.0°C (37°F) [RH = 81%]
Pressure (altimeter): 30.15 inches Hg (1021.1 mb)
Winds: from the SSW (200 degrees) at 8 MPH (7 knots; 3.6 m/s)
Visibility: 10 or more miles (16+ km)
Ceiling: at least 12,000 feet AGL
Clouds: sky clear below 12,000 feet AGL
Weather: automated observation with no human augmentation;
there may or may not be significant weather present at this time

METAR text: KMNH 210811Z AUTO 19011KT 10SM CLR 06/03 A3015 RMK AO2
Conditions at: KMNH (MONUMENT/ELBERT , CO, US) observed 0811 UTC 21 October 2014
Temperature: 6.0°C (43°F)
Dewpoint: 3.0°C (37°F) [RH = 81%]
Pressure (altimeter): 30.15 inches Hg (1021.1 mb)
Winds: from the S (190 degrees) at 13 MPH (11 knots; 5.7 m/s)
Visibility: 10 or more miles (16+ km)
Ceiling: at least 12,000 feet AGL
Clouds: sky clear below 12,000 feet AGL
Weather: automated observation with no human augmentation;
there may or may not be significant weather present at this time

METAR text: KMNH 210752Z AUTO 18010KT 10SM CLR 06/03 A3015 RMK AO2
Conditions at: KMNH (MONUMENT/ELBERT , CO, US) observed 0752 UTC 21 October 2014
Temperature: 6.0°C (43°F)
Dewpoint: 3.0°C (37°F) [RH = 81%]
Pressure (altimeter): 30.15 inches Hg (1021.1 mb)
Winds: from the S (180 degrees) at 12 MPH (10 knots; 5.2 m/s)
Visibility: 10 or more miles (16+ km)
Ceiling: at least 12,000 feet AGL
Clouds: sky clear below 12,000 feet AGL
Weather: automated observation with no human augmentation;
there may or may not be significant weather present at this time

METAR text: KMNH 210732Z AUTO 19008KT 10SM CLR 07/04 A3015 RMK AO2
Conditions at: KMNH (MONUMENT/ELBERT , CO, US) observed 0732 UTC 21 October 2014
Temperature: 7.0°C (45°F)
Dewpoint: 4.0°C (39°F) [RH = 81%]
Pressure (altimeter): 30.15 inches Hg (1021.1 mb)
Winds: from the S (190 degrees) at 9 MPH (8 knots; 4.2 m/s)
Visibility: 10 or more miles (16+ km)
Ceiling: at least 12,000 feet AGL
Clouds: sky clear below 12,000 feet AGL
Weather: automated observation with no human augmentation;
there may or may not be significant weather present at this time

METAR text: KMNH 210712Z AUTO 17010KT 10SM CLR 07/04 A3015 RMK AO2
Conditions at: KMNH (MONUMENT/ELBERT , CO, US) observed 0712 UTC 21 October 2014
Temperature: 7.0°C (45°F)
Dewpoint: 4.0°C (39°F) [RH = 81%]
Pressure (altimeter): 30.15 inches Hg (1021.1 mb)
Winds: from the S (170 degrees) at 12 MPH (10 knots; 5.2 m/s)
Visibility: 10 or more miles (16+ km)
Ceiling: at least 12,000 feet AGL
Clouds: sky clear below 12,000 feet AGL
Weather: automated observation with no human augmentation;
there may or may not be significant weather present at this time

METAR text: KMNH 210652Z AUTO 18010KT 10SM CLR 08/04 A3016 RMK AO2
Conditions at: KMNH (MONUMENT/ELBERT , CO, US) observed 0652 UTC 21 October 2014
Temperature: 8.0°C (46°F)
Dewpoint: 4.0°C (39°F) [RH = 76%]
Pressure (altimeter): 30.16 inches Hg (1021.4 mb)
Winds: from the S (180 degrees) at 12 MPH (10 knots; 5.2 m/s)
Visibility: 10 or more miles (16+ km)
Ceiling: at least 12,000 feet AGL
Clouds: sky clear below 12,000 feet AGL
Weather: automated observation with no human augmentation;
there may or may not be significant weather present at this time

METAR text: KMNH 210632Z AUTO 18014KT 10SM CLR 08/04 A3016 RMK AO2
Conditions at: KMNH (MONUMENT/ELBERT , CO, US) observed 0632 UTC 21 October 2014
Temperature: 8.0°C (46°F)
Dewpoint: 4.0°C (39°F) [RH = 76%]
Pressure (altimeter): 30.16 inches Hg (1021.4 mb)
Winds: from the S (180 degrees) at 16 MPH (14 knots; 7.3 m/s)
Visibility: 10 or more miles (16+ km)
Ceiling: at least 12,000 feet AGL
Clouds: sky clear below 12,000 feet AGL
Weather: automated observation with no human augmentation;
there may or may not be significant weather present at this time

METAR text: KMNH 210612Z AUTO 18017KT 10SM CLR 09/04 A3016 RMK AO2
Conditions at: KMNH (MONUMENT/ELBERT , CO, US) observed 0612 UTC 21 October 2014
Temperature: 9.0°C (48°F)
Dewpoint: 4.0°C (39°F) [RH = 71%]
Pressure (altimeter): 30.16 inches Hg (1021.4 mb)
Winds: from the S (180 degrees) at 20 MPH (17 knots; 8.8 m/s)
Visibility: 10 or more miles (16+ km)
Ceiling: at least 12,000 feet AGL
Clouds: sky clear below 12,000 feet AGL
Weather: automated observation with no human augmentation;
there may or may not be significant weather present at this time

METAR text: KMNH 210552Z AUTO 18017KT 10SM CLR 09/04 A3017 RMK AO2
Conditions at: KMNH (MONUMENT/ELBERT , CO, US) observed 0552 UTC 21 October 2014
Temperature: 9.0°C (48°F)
Dewpoint: 4.0°C (39°F) [RH = 71%]
Pressure (altimeter): 30.17 inches Hg (1021.8 mb)
Winds: from the S (180 degrees) at 20 MPH (17 knots; 8.8 m/s)
Visibility: 10 or more miles (16+ km)
Ceiling: at least 12,000 feet AGL
Clouds: sky clear below 12,000 feet AGL
Weather: automated observation with no human augmentation;
there may or may not be significant weather present at this time

METAR text: KMNH 210532Z AUTO 18016G23KT 10SM CLR 09/03 A3017 RMK AO2
Conditions at: KMNH (MONUMENT/ELBERT , CO, US) observed 0532 UTC 21 October 2014
Temperature: 9.0°C (48°F)
Dewpoint: 3.0°C (37°F) [RH = 66%]
Pressure (altimeter): 30.17 inches Hg (1021.8 mb)
Winds: from the S (180 degrees) at 18 MPH (16 knots; 8.3 m/sgusting to 26 MPH (23 knots; 12.0 m/s)
Visibility: 10 or more miles (16+ km)
Ceiling: at least 12,000 feet AGL
Clouds: sky clear below 12,000 feet AGL
Weather: automated observation with no human augmentation;
there may or may not be significant weather present at this time

METAR text: KMNH 210512Z AUTO 18017G22KT 10SM CLR 09/03 A3017 RMK AO2
Conditions at: KMNH (MONUMENT/ELBERT , CO, US) observed 0512 UTC 21 October 2014
Temperature: 9.0°C (48°F)
Dewpoint: 3.0°C (37°F) [RH = 66%]
Pressure (altimeter): 30.17 inches Hg (1021.8 mb)
Winds: from the S (180 degrees) at 20 MPH (17 knots; 8.8 m/sgusting to 25 MPH (22 knots; 11.4 m/s)
Visibility: 10 or more miles (16+ km)
Ceiling: at least 12,000 feet AGL
Clouds: sky clear below 12,000 feet AGL
Weather: automated observation with no human augmentation;
there may or may not be significant weather present at this time

METAR text: KMNH 210452Z AUTO 18018G25KT 10SM CLR 10/03 A3018 RMK AO2
Conditions at: KMNH (MONUMENT/ELBERT , CO, US) observed 0452 UTC 21 October 2014
Temperature: 10.0°C (50°F)
Dewpoint: 3.0°C (37°F) [RH = 62%]
Pressure (altimeter): 30.18 inches Hg (1022.1 mb)
Winds: from the S (180 degrees) at 21 MPH (18 knots; 9.4 m/sgusting to 29 MPH (25 knots; 13.0 m/s)
Visibility: 10 or more miles (16+ km)
Ceiling: at least 12,000 feet AGL
Clouds: sky clear below 12,000 feet AGL
Weather: automated observation with no human augmentation;
there may or may not be significant weather present at this time

METAR text: KMNH 210432Z AUTO 18020G24KT 10SM CLR 10/03 A3019 RMK AO2
Conditions at: KMNH (MONUMENT/ELBERT , CO, US) observed 0432 UTC 21 October 2014
Temperature: 10.0°C (50°F)
Dewpoint: 3.0°C (37°F) [RH = 62%]
Pressure (altimeter): 30.19 inches Hg (1022.4 mb)
Winds: from the S (180 degrees) at 23 MPH (20 knots; 10.4 m/sgusting to 28 MPH (24 knots; 12.5 m/s)
Visibility: 10 or more miles (16+ km)
Ceiling: at least 12,000 feet AGL
Clouds: sky clear below 12,000 feet AGL
Weather: automated observation with no human augmentation;
there may or may not be significant weather present at this time

METAR text: KMNH 210412Z AUTO 18017G22KT 10SM CLR 10/02 A3019 RMK AO2
Conditions at: KMNH (MONUMENT/ELBERT , CO, US) observed 0412 UTC 21 October 2014
Temperature: 10.0°C (50°F)
Dewpoint: 2.0°C (36°F) [RH = 57%]
Pressure (altimeter): 30.19 inches Hg (1022.4 mb)
Winds: from the S (180 degrees) at 20 MPH (17 knots; 8.8 m/sgusting to 25 MPH (22 knots; 11.4 m/s)
Visibility: 10 or more miles (16+ km)
Ceiling: at least 12,000 feet AGL
Clouds: sky clear below 12,000 feet AGL
Weather: automated observation with no human augmentation;
there may or may not be significant weather present at this time

METAR text: KMNH 210351Z AUTO 17019G26KT 10SM CLR 10/02 A3019 RMK AO2
Conditions at: KMNH (MONUMENT/ELBERT , CO, US) observed 0351 UTC 21 October 2014
Temperature: 10.0°C (50°F)
Dewpoint: 2.0°C (36°F) [RH = 57%]
Pressure (altimeter): 30.19 inches Hg (1022.4 mb)
Winds: from the S (170 degrees) at 22 MPH (19 knots; 9.9 m/sgusting to 30 MPH (26 knots; 13.5 m/s)
Visibility: 10 or more miles (16+ km)
Ceiling: at least 12,000 feet AGL
Clouds: sky clear below 12,000 feet AGL
Weather: automated observation with no human augmentation;
there may or may not be significant weather present at this time

METAR text: KMNH 210332Z AUTO 18019G24KT 10SM CLR 11/02 A3019 RMK AO2
Conditions at: KMNH (MONUMENT/ELBERT , CO, US) observed 0332 UTC 21 October 2014
Temperature: 11.0°C (52°F)
Dewpoint: 2.0°C (36°F) [RH = 54%]
Pressure (altimeter): 30.19 inches Hg (1022.4 mb)
Winds: from the S (180 degrees) at 22 MPH (19 knots; 9.9 m/sgusting to 28 MPH (24 knots; 12.5 m/s)
Visibility: 10 or more miles (16+ km)
Ceiling: at least 12,000 feet AGL
Clouds: sky clear below 12,000 feet AGL
Weather: automated observation with no human augmentation;
there may or may not be significant weather present at this time

METAR text: KMNH 210312Z AUTO 18020G24KT 10SM CLR 11/02 A3019 RMK AO2
Conditions at: KMNH (MONUMENT/ELBERT , CO, US) observed 0312 UTC 21 October 2014
Temperature: 11.0°C (52°F)
Dewpoint: 2.0°C (36°F) [RH = 54%]
Pressure (altimeter): 30.19 inches Hg (1022.4 mb)
Winds: from the S (180 degrees) at 23 MPH (20 knots; 10.4 m/sgusting to 28 MPH (24 knots; 12.5 m/s)
Visibility: 10 or more miles (16+ km)
Ceiling: at least 12,000 feet AGL
Clouds: sky clear below 12,000 feet AGL
Weather: automated observation with no human augmentation;
there may or may not be significant weather present at this time

METAR text: KMNH 210252Z AUTO 17018G22KT 10SM CLR 11/02 A3019 RMK AO2
Conditions at: KMNH (MONUMENT/ELBERT , CO, US) observed 0252 UTC 21 October 2014
Temperature: 11.0°C (52°F)
Dewpoint: 2.0°C (36°F) [RH = 54%]
Pressure (altimeter): 30.19 inches Hg (1022.4 mb)
Winds: from the S (170 degrees) at 21 MPH (18 knots; 9.4 m/sgusting to 25 MPH (22 knots; 11.4 m/s)
Visibility: 10 or more miles (16+ km)
Ceiling: at least 12,000 feet AGL
Clouds: sky clear below 12,000 feet AGL
Weather: automated observation with no human augmentation;
there may or may not be significant weather present at this time

METAR text: KMNH 210232Z AUTO 18018G22KT 10SM CLR 11/01 A3019 RMK AO2
Conditions at: KMNH (MONUMENT/ELBERT , CO, US) observed 0232 UTC 21 October 2014
Temperature: 11.0°C (52°F)
Dewpoint: 1.0°C (34°F) [RH = 50%]
Pressure (altimeter): 30.19 inches Hg (1022.4 mb)
Winds: from the S (180 degrees) at 21 MPH (18 knots; 9.4 m/sgusting to 25 MPH (22 knots; 11.4 m/s)
Visibility: 10 or more miles (16+ km)
Ceiling: at least 12,000 feet AGL
Clouds: sky clear below 12,000 feet AGL
Weather: automated observation with no human augmentation;
there may or may not be significant weather present at this time

METAR text: KMNH 210212Z AUTO 17017G22KT 10SM CLR 11/01 A3019 RMK AO2
Conditions at: KMNH (MONUMENT/ELBERT , CO, US) observed 0212 UTC 21 October 2014
Temperature: 11.0°C (52°F)
Dewpoint: 1.0°C (34°F) [RH = 50%]
Pressure (altimeter): 30.19 inches Hg (1022.4 mb)
Winds: from the S (170 degrees) at 20 MPH (17 knots; 8.8 m/sgusting to 25 MPH (22 knots; 11.4 m/s)
Visibility: 10 or more miles (16+ km)
Ceiling: at least 12,000 feet AGL
Clouds: sky clear below 12,000 feet AGL
Weather: automated observation with no human augmentation;
there may or may not be significant weather present at this time

METAR text: KMNH 210152Z AUTO 17017G22KT 10SM CLR 11/01 A3018 RMK AO2
Conditions at: KMNH (MONUMENT/ELBERT , CO, US) observed 0152 UTC 21 October 2014
Temperature: 11.0°C (52°F)
Dewpoint: 1.0°C (34°F) [RH = 50%]
Pressure (altimeter): 30.18 inches Hg (1022.1 mb)
Winds: from the S (170 degrees) at 20 MPH (17 knots; 8.8 m/sgusting to 25 MPH (22 knots; 11.4 m/s)
Visibility: 10 or more miles (16+ km)
Ceiling: at least 12,000 feet AGL
Clouds: sky clear below 12,000 feet AGL
Weather: automated observation with no human augmentation;
there may or may not be significant weather present at this time

METAR text: KMNH 210132Z AUTO 17016KT 10SM CLR 11/00 A3018 RMK AO2
Conditions at: KMNH (MONUMENT/ELBERT , CO, US) observed 0132 UTC 21 October 2014
Temperature: 11.0°C (52°F)
Dewpoint: 0.0°C (32°F) [RH = 47%]
Pressure (altimeter): 30.18 inches Hg (1022.1 mb)
Winds: from the S (170 degrees) at 18 MPH (16 knots; 8.3 m/s)
Visibility: 10 or more miles (16+ km)
Ceiling: at least 12,000 feet AGL
Clouds: sky clear below 12,000 feet AGL
Weather: automated observation with no human augmentation;
there may or may not be significant weather present at this time

METAR text: KMNH 210111Z AUTO 18016G20KT 10SM CLR 12/00 A3018 RMK AO2
Conditions at: KMNH (MONUMENT/ELBERT , CO, US) observed 0111 UTC 21 October 2014
Temperature: 12.0°C (54°F)
Dewpoint: 0.0°C (32°F) [RH = 44%]
Pressure (altimeter): 30.18 inches Hg (1022.1 mb)
Winds: from the S (180 degrees) at 18 MPH (16 knots; 8.3 m/sgusting to 23 MPH (20 knots; 10.4 m/s)
Visibility: 10 or more miles (16+ km)
Ceiling: at least 12,000 feet AGL
Clouds: sky clear below 12,000 feet AGL
Weather: automated observation with no human augmentation;
there may or may not be significant weather present at this time

METAR text: KMNH 210052Z AUTO 17017KT 10SM CLR 12/00 A3018 RMK AO2
Conditions at: KMNH (MONUMENT/ELBERT , CO, US) observed 0052 UTC 21 October 2014
Temperature: 12.0°C (54°F)
Dewpoint: 0.0°C (32°F) [RH = 44%]
Pressure (altimeter): 30.18 inches Hg (1022.1 mb)
Winds: from the S (170 degrees) at 20 MPH (17 knots; 8.8 m/s)
Visibility: 10 or more miles (16+ km)
Ceiling: at least 12,000 feet AGL
Clouds: sky clear below 12,000 feet AGL
Weather: automated observation with no human augmentation;
there may or may not be significant weather present at this time

METAR text: KMNH 210032Z AUTO 17016KT 10SM CLR 12/00 A3017 RMK AO2
Conditions at: KMNH (MONUMENT/ELBERT , CO, US) observed 0032 UTC 21 October 2014
Temperature: 12.0°C (54°F)
Dewpoint: 0.0°C (32°F) [RH = 44%]
Pressure (altimeter): 30.17 inches Hg (1021.8 mb)
Winds: from the S (170 degrees) at 18 MPH (16 knots; 8.3 m/s)
Visibility: 10 or more miles (16+ km)
Ceiling: at least 12,000 feet AGL
Clouds: sky clear below 12,000 feet AGL
Weather: automated observation with no human augmentation;
there may or may not be significant weather present at this time

METAR text: KMNH 210012Z AUTO 17014KT 10SM CLR 13/00 A3017 RMK AO2
Conditions at: KMNH (MONUMENT/ELBERT , CO, US) observed 0012 UTC 21 October 2014
Temperature: 13.0°C (55°F)
Dewpoint: 0.0°C (32°F) [RH = 41%]
Pressure (altimeter): 30.17 inches Hg (1021.8 mb)
Winds: from the S (170 degrees) at 16 MPH (14 knots; 7.3 m/s)
Visibility: 10 or more miles (16+ km)
Ceiling: at least 12,000 feet AGL
Clouds: sky clear below 12,000 feet AGL
Weather: automated observation with no human augmentation;
there may or may not be significant weather present at this time

METAR text: KMNH 202352Z AUTO 18014KT 10SM CLR 14/00 A3018 RMK AO2
Conditions at: KMNH (MONUMENT/ELBERT , CO, US) observed 2352 UTC 20 October 2014
Temperature: 14.0°C (57°F)
Dewpoint: 0.0°C (32°F) [RH = 38%]
Pressure (altimeter): 30.18 inches Hg (1022.1 mb)
Winds: from the S (180 degrees) at 16 MPH (14 knots; 7.3 m/s)
Visibility: 10 or more miles (16+ km)
Ceiling: at least 12,000 feet AGL
Clouds: sky clear below 12,000 feet AGL
Weather: automated observation with no human augmentation;
there may or may not be significant weather present at this time

METAR text: KMNH 202332Z AUTO 18014KT 10SM CLR 15/M01 A3018 RMK AO2
Conditions at: KMNH (MONUMENT/ELBERT , CO, US) observed 2332 UTC 20 October 2014
Temperature: 15.0°C (59°F)
Dewpoint: -1.0°C (30°F) [RH = 33%]
Pressure (altimeter): 30.18 inches Hg (1022.1 mb)
Winds: from the S (180 degrees) at 16 MPH (14 knots; 7.3 m/s)
Visibility: 10 or more miles (16+ km)
Ceiling: at least 12,000 feet AGL
Clouds: sky clear below 12,000 feet AGL
Weather: automated observation with no human augmentation;
there may or may not be significant weather present at this time

METAR text: KMNH 202312Z AUTO 18015G24KT 10SM CLR 16/00 A3018 RMK AO2
Conditions at: KMNH (MONUMENT/ELBERT , CO, US) observed 2312 UTC 20 October 2014
Temperature: 16.0°C (61°F)
Dewpoint: 0.0°C (32°F) [RH = 34%]
Pressure (altimeter): 30.18 inches Hg (1022.1 mb)
Winds: from the S (180 degrees) at 17 MPH (15 knots; 7.8 m/sgusting to 28 MPH (24 knots; 12.5 m/s)
Visibility: 10 or more miles (16+ km)
Ceiling: at least 12,000 feet AGL
Clouds: sky clear below 12,000 feet AGL
Weather: automated observation with no human augmentation;
there may or may not be significant weather present at this time

METAR text: KMNH 202252Z AUTO 18018KT 10SM CLR 16/00 A3018 RMK AO2
Conditions at: KMNH (MONUMENT/ELBERT , CO, US) observed 2252 UTC 20 October 2014
Temperature: 16.0°C (61°F)
Dewpoint: 0.0°C (32°F) [RH = 34%]
Pressure (altimeter): 30.18 inches Hg (1022.1 mb)
Winds: from the S (180 degrees) at 21 MPH (18 knots; 9.4 m/s)
Visibility: 10 or more miles (16+ km)
Ceiling: at least 12,000 feet AGL
Clouds: sky clear below 12,000 feet AGL
Weather: automated observation with no human augmentation;
there may or may not be significant weather present at this time

METAR text: KMNH 202232Z AUTO 18016G23KT 10SM CLR 17/00 A3018 RMK AO2
Conditions at: KMNH (MONUMENT/ELBERT , CO, US) observed 2232 UTC 20 October 2014
Temperature: 17.0°C (63°F)
Dewpoint: 0.0°C (32°F) [RH = 32%]
Pressure (altimeter): 30.18 inches Hg (1022.1 mb)
Winds: from the S (180 degrees) at 18 MPH (16 knots; 8.3 m/sgusting to 26 MPH (23 knots; 12.0 m/s)
Visibility: 10 or more miles (16+ km)
Ceiling: at least 12,000 feet AGL
Clouds: sky clear below 12,000 feet AGL
Weather: automated observation with no human augmentation;
there may or may not be significant weather present at this time

METAR text: KMNH 202212Z AUTO 17016G23KT 10SM CLR 17/00 A3018 RMK AO2
Conditions at: KMNH (MONUMENT/ELBERT , CO, US) observed 2212 UTC 20 October 2014
Temperature: 17.0°C (63°F)
Dewpoint: 0.0°C (32°F) [RH = 32%]
Pressure (altimeter): 30.18 inches Hg (1022.1 mb)
Winds: from the S (170 degrees) at 18 MPH (16 knots; 8.3 m/sgusting to 26 MPH (23 knots; 12.0 m/s)
Visibility: 10 or more miles (16+ km)
Ceiling: at least 12,000 feet AGL
Clouds: sky clear below 12,000 feet AGL
Weather: automated observation with no human augmentation;
there may or may not be significant weather present at this time

METAR text: KMNH 202152Z AUTO 17019G24KT 10SM CLR 18/00 A3019 RMK AO2
Conditions at: KMNH (MONUMENT/ELBERT , CO, US) observed 2152 UTC 20 October 2014
Temperature: 18.0°C (64°F)
Dewpoint: 0.0°C (32°F) [RH = 30%]
Pressure (altimeter): 30.19 inches Hg (1022.4 mb)
Winds: from the S (170 degrees) at 22 MPH (19 knots; 9.9 m/sgusting to 28 MPH (24 knots; 12.5 m/s)
Visibility: 10 or more miles (16+ km)
Ceiling: at least 12,000 feet AGL
Clouds: sky clear below 12,000 feet AGL
Weather: automated observation with no human augmentation;
there may or may not be significant weather present at this time

METAR text: KMNH 202132Z AUTO 17016G20KT 10SM CLR 18/00 A3019 RMK AO2
Conditions at: KMNH (MONUMENT/ELBERT , CO, US) observed 2132 UTC 20 October 2014
Temperature: 18.0°C (64°F)
Dewpoint: 0.0°C (32°F) [RH = 30%]
Pressure (altimeter): 30.19 inches Hg (1022.4 mb)
Winds: from the S (170 degrees) at 18 MPH (16 knots; 8.3 m/sgusting to 23 MPH (20 knots; 10.4 m/s)
Visibility: 10 or more miles (16+ km)
Ceiling: at least 12,000 feet AGL
Clouds: sky clear below 12,000 feet AGL
Weather: automated observation with no human augmentation;
there may or may not be significant weather present at this time

METAR text: KMNH 202112Z AUTO 16019G23KT 10SM CLR 18/00 A3019 RMK AO2
Conditions at: KMNH (MONUMENT/ELBERT , CO, US) observed 2112 UTC 20 October 2014
Temperature: 18.0°C (64°F)
Dewpoint: 0.0°C (32°F) [RH = 30%]
Pressure (altimeter): 30.19 inches Hg (1022.4 mb)
Winds: from the SSE (160 degrees) at 22 MPH (19 knots; 9.9 m/sgusting to 26 MPH (23 knots; 12.0 m/s)
Visibility: 10 or more miles (16+ km)
Ceiling: at least 12,000 feet AGL
Clouds: sky clear below 12,000 feet AGL
Weather: automated observation with no human augmentation;
there may or may not be significant weather present at this time

METAR text: KMNH 202052Z AUTO 16016G23KT 10SM CLR 18/00 A3019 RMK AO2
Conditions at: KMNH (MONUMENT/ELBERT , CO, US) observed 2052 UTC 20 October 2014
Temperature: 18.0°C (64°F)
Dewpoint: 0.0°C (32°F) [RH = 30%]
Pressure (altimeter): 30.19 inches Hg (1022.4 mb)
Winds: from the SSE (160 degrees) at 18 MPH (16 knots; 8.3 m/sgusting to 26 MPH (23 knots; 12.0 m/s)
Visibility: 10 or more miles (16+ km)
Ceiling: at least 12,000 feet AGL
Clouds: sky clear below 12,000 feet AGL
Weather: automated observation with no human augmentation;
there may or may not be significant weather present at this time

METAR text: KMNH 202032Z AUTO 18016G20KT 10SM CLR 18/00 A3019 RMK AO2
Conditions at: KMNH (MONUMENT/ELBERT , CO, US) observed 2032 UTC 20 October 2014
Temperature: 18.0°C (64°F)
Dewpoint: 0.0°C (32°F) [RH = 30%]
Pressure (altimeter): 30.19 inches Hg (1022.4 mb)
Winds: from the S (180 degrees) at 18 MPH (16 knots; 8.3 m/sgusting to 23 MPH (20 knots; 10.4 m/s)
Visibility: 10 or more miles (16+ km)
Ceiling: at least 12,000 feet AGL
Clouds: sky clear below 12,000 feet AGL
Weather: automated observation with no human augmentation;
there may or may not be significant weather present at this time

METAR text: KMNH 202012Z AUTO 16017G22KT 10SM CLR 18/00 A3020 RMK AO2
Conditions at: KMNH (MONUMENT/ELBERT , CO, US) observed 2012 UTC 20 October 2014
Temperature: 18.0°C (64°F)
Dewpoint: 0.0°C (32°F) [RH = 30%]
Pressure (altimeter): 30.20 inches Hg (1022.8 mb)
Winds: from the SSE (160 degrees) at 20 MPH (17 knots; 8.8 m/sgusting to 25 MPH (22 knots; 11.4 m/s)
Visibility: 10 or more miles (16+ km)
Ceiling: at least 12,000 feet AGL
Clouds: sky clear below 12,000 feet AGL
Weather: automated observation with no human augmentation;
there may or may not be significant weather present at this time

METAR text: KMNH 201952Z AUTO 16017G22KT 10SM CLR 18/00 A3020 RMK AO2
Conditions at: KMNH (MONUMENT/ELBERT , CO, US) observed 1952 UTC 20 October 2014
Temperature: 18.0°C (64°F)
Dewpoint: 0.0°C (32°F) [RH = 30%]
Pressure (altimeter): 30.20 inches Hg (1022.8 mb)
Winds: from the SSE (160 degrees) at 20 MPH (17 knots; 8.8 m/sgusting to 25 MPH (22 knots; 11.4 m/s)
Visibility: 10 or more miles (16+ km)
Ceiling: at least 12,000 feet AGL
Clouds: sky clear below 12,000 feet AGL
Weather: automated observation with no human augmentation;
there may or may not be significant weather present at this time

METAR text: KMNH 201932Z AUTO 16015G23KT 10SM CLR 18/00 A3020 RMK AO2
Conditions at: KMNH (MONUMENT/ELBERT , CO, US) observed 1932 UTC 20 October 2014
Temperature: 18.0°C (64°F)
Dewpoint: 0.0°C (32°F) [RH = 30%]
Pressure (altimeter): 30.20 inches Hg (1022.8 mb)
Winds: from the SSE (160 degrees) at 17 MPH (15 knots; 7.8 m/sgusting to 26 MPH (23 knots; 12.0 m/s)
Visibility: 10 or more miles (16+ km)
Ceiling: at least 12,000 feet AGL
Clouds: sky clear below 12,000 feet AGL
Weather: automated observation with no human augmentation;
there may or may not be significant weather present at this time

METAR text: KMNH 201912Z AUTO 18019G24KT 10SM CLR 18/00 A3021 RMK AO2
Conditions at: KMNH (MONUMENT/ELBERT , CO, US) observed 1912 UTC 20 October 2014
Temperature: 18.0°C (64°F)
Dewpoint: 0.0°C (32°F) [RH = 30%]
Pressure (altimeter): 30.21 inches Hg (1023.1 mb)
Winds: from the S (180 degrees) at 22 MPH (19 knots; 9.9 m/sgusting to 28 MPH (24 knots; 12.5 m/s)
Visibility: 10 or more miles (16+ km)
Ceiling: at least 12,000 feet AGL
Clouds: sky clear below 12,000 feet AGL
Weather: automated observation with no human augmentation;
there may or may not be significant weather present at this time

METAR text: KMNH 201852Z AUTO 19016G24KT 10SM CLR 18/00 A3022 RMK AO2
Conditions at: KMNH (MONUMENT/ELBERT , CO, US) observed 1852 UTC 20 October 2014
Temperature: 18.0°C (64°F)
Dewpoint: 0.0°C (32°F) [RH = 30%]
Pressure (altimeter): 30.22 inches Hg (1023.5 mb)
Winds: from the S (190 degrees) at 18 MPH (16 knots; 8.3 m/sgusting to 28 MPH (24 knots; 12.5 m/s)
Visibility: 10 or more miles (16+ km)
Ceiling: at least 12,000 feet AGL
Clouds: sky clear below 12,000 feet AGL
Weather: automated observation with no human augmentation;
there may or may not be significant weather present at this time

METAR text: KMNH 201832Z AUTO 17014G19KT 10SM CLR 18/00 A3023 RMK AO2
Conditions at: KMNH (MONUMENT/ELBERT , CO, US) observed 1832 UTC 20 October 2014
Temperature: 18.0°C (64°F)
Dewpoint: 0.0°C (32°F) [RH = 30%]
Pressure (altimeter): 30.23 inches Hg (1023.8 mb)
Winds: from the S (170 degrees) at 16 MPH (14 knots; 7.3 m/sgusting to 22 MPH (19 knots; 9.9 m/s)
Visibility: 10 or more miles (16+ km)
Ceiling: at least 12,000 feet AGL
Clouds: sky clear below 12,000 feet AGL
Weather: automated observation with no human augmentation;
there may or may not be significant weather present at this time

METAR text: KMNH 201812Z AUTO 18016G22KT 10SM CLR 18/00 A3024 RMK AO2
Conditions at: KMNH (MONUMENT/ELBERT , CO, US) observed 1812 UTC 20 October 2014
Temperature: 18.0°C (64°F)
Dewpoint: 0.0°C (32°F) [RH = 30%]
Pressure (altimeter): 30.24 inches Hg (1024.1 mb)
Winds: from the S (180 degrees) at 18 MPH (16 knots; 8.3 m/sgusting to 25 MPH (22 knots; 11.4 m/s)
Visibility: 10 or more miles (16+ km)
Ceiling: at least 12,000 feet AGL
Clouds: sky clear below 12,000 feet AGL
Weather: automated observation with no human augmentation;
there may or may not be significant weather present at this time

METAR text: KMNH 201752Z AUTO 19016G21KT 10SM CLR 17/00 A3025 RMK AO2
Conditions at: KMNH (MONUMENT/ELBERT , CO, US) observed 1752 UTC 20 October 2014
Temperature: 17.0°C (63°F)
Dewpoint: 0.0°C (32°F) [RH = 32%]
Pressure (altimeter): 30.25 inches Hg (1024.5 mb)
Winds: from the S (190 degrees) at 18 MPH (16 knots; 8.3 m/sgusting to 24 MPH (21 knots; 10.9 m/s)
Visibility: 10 or more miles (16+ km)
Ceiling: at least 12,000 feet AGL
Clouds: sky clear below 12,000 feet AGL
Weather: automated observation with no human augmentation;
there may or may not be significant weather present at this time

METAR text: KMNH 201732Z AUTO 20016G21KT 10SM CLR 17/00 A3025 RMK AO2
Conditions at: KMNH (MONUMENT/ELBERT , CO, US) observed 1732 UTC 20 October 2014
Temperature: 17.0°C (63°F)
Dewpoint: 0.0°C (32°F) [RH = 32%]
Pressure (altimeter): 30.25 inches Hg (1024.5 mb)
Winds: from the SSW (200 degrees) at 18 MPH (16 knots; 8.3 m/sgusting to 24 MPH (21 knots; 10.9 m/s)
Visibility: 10 or more miles (16+ km)
Ceiling: at least 12,000 feet AGL
Clouds: sky clear below 12,000 feet AGL
Weather: automated observation with no human augmentation;
there may or may not be significant weather present at this time

METAR text: KMNH 201712Z AUTO 20014KT 10SM CLR 17/00 A3025 RMK AO2
Conditions at: KMNH (MONUMENT/ELBERT , CO, US) observed 1712 UTC 20 October 2014
Temperature: 17.0°C (63°F)
Dewpoint: 0.0°C (32°F) [RH = 32%]
Pressure (altimeter): 30.25 inches Hg (1024.5 mb)
Winds: from the SSW (200 degrees) at 16 MPH (14 knots; 7.3 m/s)
Visibility: 10 or more miles (16+ km)
Ceiling: at least 12,000 feet AGL
Clouds: sky clear below 12,000 feet AGL
Weather: automated observation with no human augmentation;
there may or may not be significant weather present at this time

METAR text: KMNH 201651Z AUTO 19013KT 10SM CLR 17/00 A3026 RMK AO2
Conditions at: KMNH (MONUMENT/ELBERT , CO, US) observed 1651 UTC 20 October 2014
Temperature: 17.0°C (63°F)
Dewpoint: 0.0°C (32°F) [RH = 32%]
Pressure (altimeter): 30.26 inches Hg (1024.8 mb)
Winds: from the S (190 degrees) at 15 MPH (13 knots; 6.8 m/s)
Visibility: 10 or more miles (16+ km)
Ceiling: at least 12,000 feet AGL
Clouds: sky clear below 12,000 feet AGL
Weather: automated observation with no human augmentation;
there may or may not be significant weather present at this time